createdAt,value
2023-01-07T00:00:50.972Z,2.50
2023-01-07T00:03:17.608Z,2.30
2023-01-07T00:05:44.341Z,3.15
2023-01-07T00:08:11.123Z,2.78
2023-01-07T00:10:37.762Z,2.53
2023-01-07T00:13:04.351Z,2.70
2023-01-07T00:15:30.986Z,2.97
2023-01-07T00:17:57.580Z,3.20
2023-01-07T00:20:24.237Z,2.70
2023-01-07T00:22:51.593Z,3.63
2023-01-07T00:25:18.198Z,3.28
2023-01-07T00:27:44.779Z,3.05
2023-01-07T00:30:12.332Z,2.97
2023-01-07T00:32:58.858Z,2.92
2023-01-07T00:35:25.969Z,3.45
2023-01-07T00:37:53.706Z,3.28
2023-01-07T00:40:21.092Z,2.80
2023-01-07T00:42:54.876Z,2.85
2023-01-07T00:45:22.509Z,3.10
2023-01-07T00:47:53.276Z,3.05
2023-01-07T00:50:22.016Z,3.47
2023-01-07T00:52:48.684Z,3.83
2023-01-07T00:55:15.351Z,3.70
2023-01-07T00:57:42.698Z,2.75
2023-01-07T01:00:10.647Z,2.60
2023-01-07T01:02:37.504Z,3.72
2023-01-07T01:05:04.549Z,3.60
2023-01-07T01:07:31.143Z,3.20
2023-01-07T01:09:57.786Z,3.35
2023-01-07T01:12:24.395Z,3.20
2023-01-07T01:14:51.032Z,2.95
2023-01-07T01:17:17.635Z,3.22
2023-01-07T01:19:44.222Z,3.20
2023-01-07T01:22:10.825Z,3.10
2023-01-07T01:24:37.456Z,3.78
2023-01-07T01:27:04.204Z,3.63
2023-01-07T01:29:31.257Z,3.22
2023-01-07T01:31:57.889Z,3.28
2023-01-07T01:34:24.458Z,3.50
2023-01-07T01:36:51.072Z,3.05
2023-01-07T01:39:20.268Z,3.70
2023-01-07T01:41:47.439Z,3.55
2023-01-07T01:44:35.180Z,2.95
2023-01-07T01:47:04.199Z,3.08
2023-01-07T01:49:33.337Z,2.97
2023-01-07T01:52:05.982Z,3.25
2023-01-07T01:57:00.663Z,3.17
2023-01-07T01:59:28.438Z,3.13
2023-01-07T02:01:55.211Z,3.95
2023-01-07T02:04:22.943Z,3.10
2023-01-07T02:06:56.113Z,2.97
2023-01-07T02:09:22.779Z,3.58
2023-01-07T02:12:19.141Z,3.45
2023-01-07T02:15:09.847Z,3.47
2023-01-07T02:21:05.582Z,3.22
2023-01-07T02:23:58.426Z,3.72
2023-01-07T02:26:37.328Z,2.75
2023-01-07T02:29:16.606Z,3.13
2023-01-07T02:35:21.488Z,2.72
2023-01-07T02:38:11.867Z,3.28
2023-01-07T02:40:44.701Z,4.68
2023-01-07T02:43:51.243Z,3.03
2023-01-07T02:46:41.822Z,3.00
2023-01-07T02:49:09.485Z,2.47
2023-01-07T02:51:37.458Z,2.90
2023-01-07T02:54:05.550Z,2.90
2023-01-07T02:56:39.584Z,3.20
2023-01-07T02:59:15.122Z,2.90
2023-01-07T03:01:57.568Z,3.42
2023-01-07T03:05:04.151Z,3.83
2023-01-07T03:07:57.246Z,3.35
2023-01-07T03:13:05.941Z,3.25
2023-01-07T03:15:38.420Z,3.13
2023-01-07T03:18:07.503Z,2.65
2023-01-07T03:20:35.405Z,3.08
2023-01-07T03:23:02.021Z,2.47
2023-01-07T03:25:28.878Z,2.70
2023-01-07T03:27:55.526Z,2.65
2023-01-07T03:30:22.141Z,3.30
2023-01-07T03:32:54.455Z,3.20
2023-01-07T03:35:21.132Z,2.63
2023-01-07T03:37:47.755Z,3.63
2023-01-07T03:40:14.333Z,2.92
2023-01-07T03:42:41.264Z,2.85
2023-01-07T03:45:14.259Z,2.72
2023-01-07T03:47:43.207Z,3.25
2023-01-07T03:50:09.899Z,2.58
2023-01-07T03:52:36.657Z,2.83
2023-01-07T03:55:04.860Z,2.95
2023-01-07T03:57:32.284Z,2.67
2023-01-07T03:59:59.033Z,2.67
2023-01-07T04:02:26.006Z,2.92
2023-01-07T04:04:52.767Z,2.80
2023-01-07T04:07:19.518Z,2.63
2023-01-07T04:09:47.251Z,2.47
2023-01-07T04:12:14.235Z,2.53
2023-01-07T04:14:40.802Z,2.90
2023-01-07T04:17:07.373Z,2.30
2023-01-07T04:19:34.015Z,1.92
2023-01-07T04:22:00.711Z,2.13
2023-01-07T04:24:27.303Z,2.33
2023-01-07T04:26:53.915Z,2.85
2023-01-07T04:29:21.087Z,2.13
2023-01-07T04:31:47.769Z,2.50
2023-01-07T04:34:14.354Z,2.25
2023-01-07T04:36:40.924Z,2.17
2023-01-07T04:39:07.542Z,2.47
2023-01-07T04:41:34.288Z,2.20
2023-01-07T04:44:01.356Z,1.88
2023-01-07T04:46:28.033Z,2.78
2023-01-07T04:48:54.673Z,1.95
2023-01-07T04:51:21.298Z,2.10
2023-01-07T04:53:48.268Z,2.20
2023-01-07T04:56:14.978Z,1.75
2023-01-07T04:58:41.813Z,1.85
2023-01-07T05:01:08.770Z,1.70
2023-01-07T05:03:35.526Z,1.67
2023-01-07T05:06:02.221Z,1.83
2023-01-07T05:08:29.134Z,1.60
2023-01-07T05:10:55.782Z,2.88
2023-01-07T05:13:22.879Z,1.77
2023-01-07T05:15:49.437Z,1.90
2023-01-07T05:18:16.159Z,1.63
2023-01-07T05:20:43.029Z,1.95
2023-01-07T05:23:09.636Z,1.95
2023-01-07T05:25:36.252Z,1.50
2023-01-07T05:28:02.888Z,1.83
2023-01-07T05:30:29.662Z,2.72
2023-01-07T05:32:56.300Z,2.05
2023-01-07T05:35:22.895Z,1.90
2023-01-07T05:37:49.472Z,2.03
2023-01-07T05:40:16.099Z,2.15
2023-01-07T05:42:43.553Z,1.92
2023-01-07T05:45:10.612Z,2.28
2023-01-07T05:47:37.240Z,1.95
2023-01-07T05:50:04.129Z,1.95
2023-01-07T05:52:30.755Z,2.40
2023-01-07T05:54:57.389Z,4.20
2023-01-07T05:57:24.989Z,2.63
2023-01-07T05:59:51.586Z,2.42
2023-01-07T06:02:18.167Z,2.00
2023-01-07T06:04:44.865Z,2.45
2023-01-07T06:07:11.476Z,1.98
2023-01-07T06:09:38.094Z,2.63
2023-01-07T06:12:04.950Z,2.42
2023-01-07T06:14:31.567Z,2.40
2023-01-07T06:16:58.206Z,2.25
2023-01-07T06:19:26.330Z,4.10
2023-01-07T06:21:53.002Z,2.63
2023-01-07T06:24:19.607Z,2.88
2023-01-07T06:26:46.214Z,2.92
2023-01-07T06:29:12.774Z,3.10
2023-01-07T06:31:39.364Z,3.47
2023-01-07T06:34:06.053Z,4.07
2023-01-07T06:36:32.665Z,3.60
2023-01-07T06:38:59.249Z,2.85
2023-01-07T06:41:25.883Z,2.72
2023-01-07T06:43:52.531Z,2.95
2023-01-07T06:46:19.312Z,2.95
2023-01-07T06:48:45.924Z,3.28
2023-01-07T06:51:12.562Z,2.92
2023-01-07T06:53:39.178Z,3.67
2023-01-07T06:56:06.033Z,3.42
2023-01-07T06:58:32.613Z,2.53
2023-01-07T07:01:04.800Z,3.42
2023-01-07T07:03:31.524Z,3.88
2023-01-07T07:05:58.097Z,4.20
2023-01-07T07:08:24.690Z,3.80
2023-01-07T07:10:51.343Z,3.97
2023-01-07T07:13:17.923Z,3.13
2023-01-07T07:15:44.530Z,3.60
2023-01-07T07:18:11.167Z,3.22
2023-01-07T07:20:37.820Z,3.67
2023-01-07T07:23:04.415Z,3.38
2023-01-07T07:25:31.014Z,3.50
2023-01-07T07:27:57.653Z,3.58
2023-01-07T07:30:47.265Z,3.65
2023-01-07T07:33:12.976Z,3.17
2023-01-07T07:35:39.577Z,3.00
2023-01-07T07:38:06.179Z,3.55
2023-01-07T07:40:32.780Z,3.85
2023-01-07T07:43:10.637Z,3.78
2023-01-07T07:45:38.904Z,3.20
2023-01-07T07:48:07.248Z,3.60
2023-01-07T07:50:34.183Z,3.80
2023-01-07T07:53:00.789Z,3.85
2023-01-07T07:55:27.476Z,3.50
2023-01-07T07:57:56.638Z,3.22
2023-01-07T08:00:23.336Z,3.88
2023-01-07T08:02:50.163Z,4.43
2023-01-07T08:05:16.787Z,3.63
2023-01-07T08:07:43.532Z,4.07
2023-01-07T08:10:10.220Z,4.30
2023-01-07T08:12:38.340Z,3.63
2023-01-07T08:15:06.095Z,7.35
2023-01-07T08:17:32.695Z,3.75
2023-01-07T08:19:59.326Z,3.47
2023-01-07T08:22:25.877Z,3.53
2023-01-07T08:24:52.491Z,3.63
2023-01-07T08:27:19.242Z,3.20
2023-01-07T08:29:46.026Z,3.97
2023-01-07T08:32:12.659Z,3.83
2023-01-07T08:34:39.314Z,4.88
2023-01-07T08:37:05.894Z,3.58
2023-01-07T08:39:32.534Z,4.05
2023-01-07T08:41:59.139Z,3.67
2023-01-07T08:44:25.719Z,3.45
2023-01-07T08:46:53.239Z,3.53
2023-01-07T08:49:19.974Z,3.70
2023-01-07T08:51:46.513Z,3.92
2023-01-07T08:54:13.163Z,3.30
2023-01-07T08:56:39.896Z,3.75
2023-01-07T08:59:06.616Z,3.80
2023-01-07T09:01:33.356Z,3.88
2023-01-07T09:04:00.148Z,3.13
2023-01-07T09:06:26.763Z,3.08
2023-01-07T09:08:53.340Z,4.32
2023-01-07T09:11:19.970Z,2.70
2023-01-07T09:13:46.581Z,3.42
2023-01-07T09:16:13.284Z,2.60
2023-01-07T09:18:39.955Z,2.38
2023-01-07T09:21:06.635Z,3.20
2023-01-07T09:23:33.247Z,2.95
2023-01-07T09:25:59.884Z,2.83
2023-01-07T09:28:26.552Z,2.78
2023-01-07T09:30:54.821Z,4.43
2023-01-07T09:33:22.535Z,4.30
2023-01-07T09:35:49.133Z,4.20
2023-01-07T09:38:15.767Z,2.17
2023-01-07T09:40:42.980Z,3.13
2023-01-07T09:43:18.002Z,3.28
2023-01-07T09:45:47.366Z,3.08
2023-01-07T09:48:21.979Z,4.80
2023-01-07T09:50:54.130Z,3.00
2023-01-07T09:53:31.092Z,2.90
2023-01-07T09:56:10.541Z,3.20
2023-01-07T09:58:40.048Z,2.70
2023-01-07T10:01:16.009Z,2.60
2023-01-07T10:04:06.602Z,3.72
2023-01-07T10:07:13.206Z,2.70
2023-01-07T10:12:42.758Z,3.80
2023-01-07T10:15:49.318Z,3.55
2023-01-07T10:18:55.829Z,3.65
2023-01-07T10:21:25.423Z,3.05
2023-01-07T10:23:58.010Z,3.20
2023-01-07T10:26:41.658Z,2.83
2023-01-07T10:31:49.465Z,3.10
2023-01-07T10:34:19.498Z,2.97
2023-01-07T10:36:59.481Z,2.80
2023-01-07T10:39:57.740Z,2.45
2023-01-07T10:42:35.672Z,2.92
2023-01-07T10:45:42.164Z,3.50
2023-01-07T10:51:34.033Z,2.78
2023-01-07T10:54:23.183Z,2.78
2023-01-07T10:56:51.998Z,5.85
2023-01-07T10:59:19.901Z,3.88
2023-01-07T11:01:50.851Z,4.60
2023-01-07T11:04:17.590Z,3.42
2023-01-07T11:06:57.138Z,3.10
2023-01-07T11:09:27.860Z,2.75
2023-01-07T11:11:54.516Z,2.28
2023-01-07T11:14:25.701Z,2.95
2023-01-07T11:16:54.461Z,2.47
2023-01-07T11:19:21.139Z,2.65
2023-01-07T11:21:50.610Z,3.20
2023-01-07T11:24:31.593Z,2.80
2023-01-07T11:27:14.947Z,3.00
2023-01-07T11:29:44.150Z,2.92
2023-01-07T11:32:20.790Z,3.05
2023-01-07T11:34:56.708Z,3.28
2023-01-07T11:37:42.657Z,2.33
2023-01-07T11:40:20.627Z,2.25
2023-01-07T11:43:04.047Z,2.47
2023-01-07T11:45:33.320Z,2.58
2023-01-07T11:48:07.197Z,2.20
2023-01-07T11:50:38.851Z,3.67
2023-01-07T11:53:21.330Z,3.08
2023-01-07T11:56:11.449Z,2.60
2023-01-07T11:58:40.003Z,2.40
2023-01-07T12:04:11.642Z,2.85
2023-01-07T12:06:39.620Z,3.25
2023-01-07T12:09:28.336Z,3.28
2023-01-07T12:11:56.849Z,3.33
2023-01-07T12:14:27.092Z,3.25
2023-01-07T12:16:54.111Z,2.17
2023-01-07T12:22:41.511Z,3.42
2023-01-07T12:25:45.413Z,3.33
2023-01-07T12:28:20.227Z,2.90
2023-01-07T12:34:08.114Z,2.10
2023-01-07T12:36:48.339Z,1.92
2023-01-07T12:39:26.150Z,2.10
2023-01-07T12:42:15.830Z,1.90
2023-01-07T12:44:46.231Z,1.95
2023-01-07T12:47:31.153Z,2.42
2023-01-07T12:50:04.847Z,1.80
2023-01-07T12:55:23.876Z,2.60
2023-01-07T12:58:17.151Z,1.77
2023-01-07T13:00:53.776Z,2.25
2023-01-07T13:03:26.791Z,1.88
2023-01-07T13:05:56.753Z,2.05
2023-01-07T13:11:44.992Z,2.30
2023-01-07T13:14:18.685Z,2.20
2023-01-07T13:16:45.282Z,2.00
2023-01-07T13:19:12.041Z,2.08
2023-01-07T13:21:38.724Z,2.42
2023-01-07T13:24:55.929Z,2.13
2023-01-07T13:27:41.867Z,2.85
2023-01-07T13:30:19.797Z,2.22
2023-01-07T13:33:14.083Z,2.22
2023-01-07T13:35:48.652Z,1.90
2023-01-07T13:44:14.363Z,2.25
2023-01-07T13:46:42.890Z,3.63
2023-01-07T13:49:23.277Z,1.70
2023-01-07T13:51:50.087Z,2.05
2023-01-07T13:54:52.627Z,1.67
2023-01-07T14:00:06.662Z,1.52
2023-01-07T14:02:55.306Z,2.28
2023-01-07T14:05:23.651Z,2.45
2023-01-07T14:07:52.964Z,2.10
2023-01-07T14:10:37.480Z,1.92
2023-01-07T14:13:44.061Z,1.48
2023-01-07T14:16:21.201Z,1.73
2023-01-07T14:19:27.897Z,2.00
2023-01-07T14:22:18.654Z,1.75
2023-01-07T14:24:55.043Z,2.00
2023-01-07T14:28:01.508Z,1.50
2023-01-07T14:30:35.301Z,2.08
2023-01-07T14:33:03.122Z,1.98
2023-01-07T14:35:36.672Z,1.88
2023-01-07T14:38:34.036Z,1.75
2023-01-07T14:41:11.799Z,1.70
2023-01-07T14:52:02.070Z,2.75
2023-01-07T14:55:07.603Z,1.88
2023-01-07T14:58:00.909Z,1.77
2023-01-07T15:01:08.777Z,2.90
2023-01-07T15:03:48.698Z,1.52
2023-01-07T15:09:37.639Z,3.35
2023-01-07T15:12:26.473Z,2.10
2023-01-07T15:15:34.103Z,2.60
2023-01-07T15:18:00.941Z,3.10
2023-01-07T15:20:38.596Z,4.25
2023-01-07T15:23:10.727Z,4.80
2023-01-07T15:26:04.980Z,2.75
2023-01-07T15:31:36.649Z,3.25
2023-01-07T15:34:11.346Z,3.20
2023-01-07T15:36:42.253Z,4.30
2023-01-07T15:39:16.253Z,3.45
2023-01-07T15:41:42.873Z,3.97
2023-01-07T15:44:18.651Z,8.32
2023-01-07T15:46:45.308Z,3.45
2023-01-07T15:49:16.167Z,3.45
2023-01-07T15:51:44.746Z,3.72
2023-01-07T15:54:32.592Z,2.63
2023-01-07T15:57:02.789Z,2.25
2023-01-07T15:59:31.293Z,3.15
2023-01-07T16:02:01.662Z,2.05
2023-01-07T16:04:31.313Z,2.47
2023-01-07T16:06:58.936Z,3.08
2023-01-07T16:09:25.624Z,3.00
2023-01-07T16:11:52.385Z,2.92
2023-01-07T16:14:20.985Z,3.00
2023-01-07T16:16:47.707Z,2.92
2023-01-07T16:19:18.835Z,2.78
2023-01-07T16:22:00.738Z,3.05
2023-01-07T16:24:27.320Z,3.00
2023-01-07T16:26:56.593Z,6.22
2023-01-07T16:29:26.139Z,4.95
2023-01-07T16:31:52.942Z,7.22
2023-01-07T16:37:04.852Z,4.13
2023-01-07T16:39:34.704Z,3.55
2023-01-07T16:42:21.429Z,3.35
2023-01-07T16:47:32.493Z,3.40
2023-01-07T16:52:52.196Z,3.67
2023-01-07T16:55:58.689Z,4.28
2023-01-07T16:58:31.442Z,3.92
2023-01-07T17:00:59.774Z,4.63
2023-01-07T17:03:26.491Z,4.40
2023-01-07T17:06:08.193Z,5.25
2023-01-07T17:08:34.839Z,4.60
2023-01-07T17:11:05.801Z,4.80
2023-01-07T17:13:33.575Z,5.80
2023-01-07T17:16:24.676Z,4.55
2023-01-07T17:18:51.607Z,4.72
2023-01-07T17:21:42.097Z,4.97
2023-01-07T17:24:31.326Z,4.90
2023-01-07T17:26:59.477Z,4.88
2023-01-07T17:29:31.432Z,5.85
2023-01-07T17:31:58.120Z,5.97
2023-01-07T17:34:25.303Z,6.38
2023-01-07T17:36:51.988Z,6.70
2023-01-07T17:39:18.594Z,7.47
2023-01-07T17:42:05.129Z,6.53
2023-01-07T17:44:32.601Z,6.45
2023-01-07T17:46:59.248Z,7.95
2023-01-07T17:49:25.908Z,6.55
2023-01-07T17:51:54.640Z,5.95
2023-01-07T17:54:23.362Z,6.20
2023-01-07T17:56:50.187Z,6.53
2023-01-07T17:59:18.235Z,7.10
2023-01-07T18:01:45.156Z,7.05
2023-01-07T18:04:12.712Z,7.72
2023-01-07T18:06:41.576Z,6.30
2023-01-07T18:09:08.667Z,6.63
2023-01-07T18:11:59.006Z,5.97
2023-01-07T18:14:25.748Z,7.57
2023-01-07T18:16:52.751Z,6.60
2023-01-07T18:19:19.755Z,7.10
2023-01-07T18:21:46.516Z,7.55
2023-01-07T18:24:17.241Z,7.13
2023-01-07T18:26:43.891Z,7.35
2023-01-07T18:29:11.040Z,6.82
2023-01-07T18:31:42.239Z,7.60
2023-01-07T18:34:10.094Z,7.45
2023-01-07T18:36:37.028Z,6.63
2023-01-07T18:39:04.493Z,6.25
2023-01-07T18:41:32.448Z,6.90
2023-01-07T18:43:59.226Z,7.32
2023-01-07T18:46:25.832Z,6.70
2023-01-07T18:48:54.865Z,6.47
2023-01-07T18:51:21.508Z,7.30
2023-01-07T18:53:48.170Z,6.82
2023-01-07T18:56:14.721Z,6.78
2023-01-07T18:58:43.952Z,7.00
2023-01-07T19:01:11.040Z,6.63
2023-01-07T19:03:38.249Z,6.53
2023-01-07T19:06:06.772Z,6.20
2023-01-07T19:08:33.343Z,6.53
2023-01-07T19:10:59.975Z,6.60
2023-01-07T19:13:26.700Z,5.32
2023-01-07T19:15:53.336Z,5.40
2023-01-07T19:18:20.046Z,5.95
2023-01-07T19:20:46.637Z,6.28
2023-01-07T19:23:13.276Z,6.10
2023-01-07T19:25:39.866Z,5.93
2023-01-07T19:28:06.518Z,7.28
2023-01-07T19:30:33.169Z,4.60
2023-01-07T19:33:00.870Z,5.90
2023-01-07T19:35:27.940Z,6.35
2023-01-07T19:37:54.577Z,7.00
2023-01-07T19:40:21.176Z,5.85
2023-01-07T19:42:48.769Z,5.50
2023-01-07T19:45:15.427Z,7.38
2023-01-07T19:47:43.761Z,6.25
2023-01-07T19:50:10.446Z,7.55
2023-01-07T19:52:37.029Z,5.55
2023-01-07T19:55:04.013Z,5.45
2023-01-07T19:57:31.549Z,6.93
2023-01-07T19:59:58.904Z,5.78
2023-01-07T20:02:25.978Z,6.35
2023-01-07T20:04:52.837Z,7.20
2023-01-07T20:07:19.429Z,6.35
2023-01-07T20:09:46.004Z,6.65
2023-01-07T20:12:12.605Z,6.68
2023-01-07T20:14:39.645Z,6.18
2023-01-07T20:17:06.296Z,6.47
2023-01-07T20:19:32.925Z,6.20
2023-01-07T20:21:59.634Z,7.05
2023-01-07T20:24:26.513Z,6.90
2023-01-07T20:26:54.673Z,5.95
2023-01-07T20:29:21.556Z,6.00
2023-01-07T20:31:48.197Z,7.15
2023-01-07T20:34:14.842Z,6.18
2023-01-07T20:36:41.429Z,5.60
2023-01-07T20:39:08.077Z,7.18
2023-01-07T20:41:35.000Z,6.57
2023-01-07T20:44:02.514Z,7.45
2023-01-07T20:46:29.716Z,6.13
2023-01-07T20:48:56.690Z,5.93
2023-01-07T20:51:23.441Z,5.57
2023-01-07T20:53:50.360Z,5.60
2023-01-07T20:56:18.805Z,5.38
2023-01-07T20:58:45.514Z,6.53
2023-01-07T21:01:14.209Z,5.45
2023-01-07T21:03:41.061Z,4.45
2023-01-07T21:06:09.941Z,5.78
2023-01-07T21:08:37.039Z,5.30
2023-01-07T21:11:03.758Z,5.22
2023-01-07T21:13:30.399Z,5.13
2023-01-07T21:16:02.454Z,5.35
2023-01-07T21:18:29.075Z,5.80
2023-01-07T21:20:55.693Z,6.60
2023-01-07T21:23:22.428Z,6.10
2023-01-07T21:25:49.409Z,5.43
2023-01-07T21:28:16.156Z,5.85
2023-01-07T21:30:42.807Z,5.57
2023-01-07T21:33:09.531Z,5.10
2023-01-07T21:35:40.579Z,6.97
2023-01-07T21:38:07.248Z,7.00
2023-01-07T21:40:33.973Z,10.25
2023-01-07T21:43:00.665Z,5.38
2023-01-07T21:45:27.305Z,8.18
2023-01-07T21:47:53.918Z,6.25
2023-01-07T21:50:20.576Z,5.07
2023-01-07T21:52:47.207Z,4.60
2023-01-07T21:55:13.803Z,4.63
2023-01-07T21:57:40.439Z,5.45
2023-01-07T22:00:07.624Z,4.60
2023-01-07T22:02:34.335Z,4.50
2023-01-07T22:05:01.112Z,4.80
2023-01-07T22:07:27.703Z,4.72
2023-01-07T22:09:54.368Z,5.22
2023-01-07T22:12:21.101Z,4.78
2023-01-07T22:14:47.740Z,4.75
2023-01-07T22:17:14.996Z,5.10
2023-01-07T22:19:41.625Z,5.15
2023-01-07T22:22:08.406Z,4.70
2023-01-07T22:24:35.099Z,5.00
2023-01-07T22:27:01.700Z,5.10
2023-01-07T22:29:30.332Z,5.57
2023-01-07T22:31:57.031Z,4.40
2023-01-07T22:34:23.759Z,5.35
2023-01-07T22:37:07.056Z,5.15
2023-01-07T22:39:39.793Z,7.85
2023-01-07T22:42:17.124Z,5.53
2023-01-07T22:44:47.184Z,5.03
2023-01-07T22:47:15.788Z,4.80
2023-01-07T22:49:42.970Z,4.93
2023-01-07T22:52:10.327Z,4.97
2023-01-07T22:54:37.057Z,5.22
2023-01-07T22:57:04.956Z,5.45
2023-01-07T22:59:31.598Z,5.40
2023-01-07T23:01:58.284Z,4.75
2023-01-07T23:04:25.035Z,4.72
2023-01-07T23:06:51.639Z,4.95
2023-01-07T23:09:18.262Z,5.18
2023-01-07T23:11:47.975Z,4.88
2023-01-07T23:14:15.488Z,5.93
2023-01-07T23:16:42.136Z,5.45
2023-01-07T23:19:08.867Z,5.30
2023-01-07T23:21:37.766Z,6.22
2023-01-07T23:24:04.538Z,5.50
2023-01-07T23:26:31.208Z,5.03
2023-01-07T23:28:57.814Z,5.97
2023-01-07T23:31:24.437Z,5.32
2023-01-07T23:33:51.093Z,6.70
2023-01-07T23:36:17.697Z,5.53
2023-01-07T23:38:44.347Z,5.28
2023-01-07T23:41:11.279Z,4.68
2023-01-07T23:43:37.986Z,5.82
2023-01-07T23:46:05.939Z,5.50
2023-01-07T23:48:33.319Z,5.68
2023-01-07T23:51:09.311Z,6.15
2023-01-07T23:53:36.068Z,6.00
2023-01-07T23:56:02.930Z,6.55
2023-01-07T23:58:29.756Z,5.88
